sensor_id;sensor_type;location;lat;lon;timestamp;P1;durP1;ratioP1;P2;durP2;ratioP2
11473;SDS011;5793;52.238;13.438;2024-02-21T00:01:53;15.87;;;5.73;;
11473;SDS011;5793;52.238;13.438;2024-02-21T00:04:21;19.50;;;5.50;;
11473;SDS011;5793;52.238;13.438;2024-02-21T00:06:50;12.93;;;5.07;;
11473;SDS011;5793;52.238;13.438;2024-02-21T00:09:18;13.90;;;5.60;;
11473;SDS011;5793;52.238;13.438;2024-02-21T00:11:46;20.50;;;5.47;;
11473;SDS011;5793;52.238;13.438;2024-02-21T00:14:14;18.23;;;5.93;;
11473;SDS011;5793;52.238;13.438;2024-02-21T00:16:42;22.10;;;5.83;;
11473;SDS011;5793;52.238;13.438;2024-02-21T00:19:09;22.47;;;6.30;;
11473;SDS011;5793;52.238;13.438;2024-02-21T00:21:37;19.97;;;5.90;;
11473;SDS011;5793;52.238;13.438;2024-02-21T00:24:07;20.90;;;6.17;;
11473;SDS011;5793;52.238;13.438;2024-02-21T00:26:34;18.93;;;7.23;;
11473;SDS011;5793;52.238;13.438;2024-02-21T00:29:02;19.40;;;6.13;;
11473;SDS011;5793;52.238;13.438;2024-02-21T00:31:34;24.53;;;7.10;;
11473;SDS011;5793;52.238;13.438;2024-02-21T00:34:02;19.40;;;6.50;;
11473;SDS011;5793;52.238;13.438;2024-02-21T00:36:30;20.87;;;7.37;;
11473;SDS011;5793;52.238;13.438;2024-02-21T00:38:57;18.10;;;6.67;;
11473;SDS011;5793;52.238;13.438;2024-02-21T00:41:26;16.93;;;6.63;;
11473;SDS011;5793;52.238;13.438;2024-02-21T00:43:54;17.57;;;6.30;;
11473;SDS011;5793;52.238;13.438;2024-02-21T00:46:22;25.20;;;6.97;;
11473;SDS011;5793;52.238;13.438;2024-02-21T00:48:50;19.83;;;6.17;;
11473;SDS011;5793;52.238;13.438;2024-02-21T00:51:18;18.57;;;6.43;;
11473;SDS011;5793;52.238;13.438;2024-02-21T00:53:46;19.97;;;6.83;;
11473;SDS011;5793;52.238;13.438;2024-02-21T00:56:14;14.30;;;6.37;;
11473;SDS011;5793;52.238;13.438;2024-02-21T00:58:45;19.07;;;6.60;;
11473;SDS011;5793;52.238;13.438;2024-02-21T01:01:13;17.60;;;6.20;;
11473;SDS011;5793;52.238;13.438;2024-02-21T01:03:40;19.30;;;6.00;;
11473;SDS011;5793;52.238;13.438;2024-02-21T01:06:08;14.60;;;6.27;;
11473;SDS011;5793;52.238;13.438;2024-02-21T01:08:36;14.50;;;6.27;;
11473;SDS011;5793;52.238;13.438;2024-02-21T01:11:04;12.10;;;5.70;;
11473;SDS011;5793;52.238;13.438;2024-02-21T01:13:32;14.27;;;6.10;;
11473;SDS011;5793;52.238;13.438;2024-02-21T01:16:01;15.43;;;5.50;;
11473;SDS011;5793;52.238;13.438;2024-02-21T01:18:29;16.40;;;5.77;;
11473;SDS011;5793;52.238;13.438;2024-02-21T01:20:57;21.33;;;6.67;;
11473;SDS011;5793;52.238;13.438;2024-02-21T01:23:25;15.87;;;6.03;;
11473;SDS011;5793;52.238;13.438;2024-02-21T01:25:53;16.27;;;5.77;;
11473;SDS011;5793;52.238;13.438;2024-02-21T01:28:21;17.97;;;6.10;;
11473;SDS011;5793;52.238;13.438;2024-02-21T01:30:49;18.63;;;6.30;;
11473;SDS011;5793;52.238;13.438;2024-02-21T01:33:19;14.50;;;5.47;;
11473;SDS011;5793;52.238;13.438;2024-02-21T01:35:47;18.03;;;5.87;;
11473;SDS011;5793;52.238;13.438;2024-02-21T01:38:15;16.93;;;5.80;;
11473;SDS011;5793;52.238;13.438;2024-02-21T01:40:43;18.53;;;6.13;;
11473;SDS011;5793;52.238;13.438;2024-02-21T01:43:17;19.97;;;6.40;;
11473;SDS011;5793;52.238;13.438;2024-02-21T01:45:48;17.43;;;6.07;;
11473;SDS011;5793;52.238;13.438;2024-02-21T01:48:19;12.83;;;5.90;;
11473;SDS011;5793;52.238;13.438;2024-02-21T01:50:48;19.10;;;5.87;;
11473;SDS011;5793;52.238;13.438;2024-02-21T01:53:17;14.47;;;5.37;;
11473;SDS011;5793;52.238;13.438;2024-02-21T01:55:48;20.10;;;5.97;;
11473;SDS011;5793;52.238;13.438;2024-02-21T01:58:16;14.10;;;4.73;;
11473;SDS011;5793;52.238;13.438;2024-02-21T02:00:46;15.20;;;5.97;;
11473;SDS011;5793;52.238;13.438;2024-02-21T02:03:15;19.80;;;5.70;;
11473;SDS011;5793;52.238;13.438;2024-02-21T02:05:45;11.33;;;5.63;;
11473;SDS011;5793;52.238;13.438;2024-02-21T02:08:14;18.50;;;6.30;;
11473;SDS011;5793;52.238;13.438;2024-02-21T02:10:42;19.67;;;5.97;;
11473;SDS011;5793;52.238;13.438;2024-02-21T02:13:10;21.60;;;5.63;;
11473;SDS011;5793;52.238;13.438;2024-02-21T02:15:39;18.30;;;5.90;;
11473;SDS011;5793;52.238;13.438;2024-02-21T02:18:07;16.77;;;5.93;;
11473;SDS011;5793;52.238;13.438;2024-02-21T02:20:35;18.00;;;5.87;;
11473;SDS011;5793;52.238;13.438;2024-02-21T02:23:06;19.00;;;6.27;;
11473;SDS011;5793;52.238;13.438;2024-02-21T02:25:37;14.00;;;5.60;;
11473;SDS011;5793;52.238;13.438;2024-02-21T02:28:06;16.40;;;5.87;;
11473;SDS011;5793;52.238;13.438;2024-02-21T02:30:34;18.20;;;5.90;;
11473;SDS011;5793;52.238;13.438;2024-02-21T02:33:03;18.07;;;5.77;;
11473;SDS011;5793;52.238;13.438;2024-02-21T02:35:32;27.33;;;6.67;;
11473;SDS011;5793;52.238;13.438;2024-02-21T02:38:01;23.57;;;7.03;;
11473;SDS011;5793;52.238;13.438;2024-02-21T02:40:29;19.27;;;5.70;;
11473;SDS011;5793;52.238;13.438;2024-02-21T02:42:59;22.33;;;6.10;;
11473;SDS011;5793;52.238;13.438;2024-02-21T02:45:26;23.90;;;6.70;;
11473;SDS011;5793;52.238;13.438;2024-02-21T02:47:54;19.07;;;6.97;;
11473;SDS011;5793;52.238;13.438;2024-02-21T02:50:23;18.87;;;6.43;;
11473;SDS011;5793;52.238;13.438;2024-02-21T02:52:52;18.67;;;5.93;;
11473;SDS011;5793;52.238;13.438;2024-02-21T02:55:20;16.10;;;6.40;;
11473;SDS011;5793;52.238;13.438;2024-02-21T02:57:48;16.83;;;6.03;;
11473;SDS011;5793;52.238;13.438;2024-02-21T03:00:17;18.77;;;7.10;;
11473;SDS011;5793;52.238;13.438;2024-02-21T03:02:46;17.87;;;6.10;;
11473;SDS011;5793;52.238;13.438;2024-02-21T03:05:17;19.63;;;7.30;;
11473;SDS011;5793;52.238;13.438;2024-02-21T03:07:46;21.50;;;6.40;;
11473;SDS011;5793;52.238;13.438;2024-02-21T03:10:15;18.77;;;6.67;;
11473;SDS011;5793;52.238;13.438;2024-02-21T03:12:44;23.17;;;6.80;;
11473;SDS011;5793;52.238;13.438;2024-02-21T03:15:12;21.07;;;6.83;;
11473;SDS011;5793;52.238;13.438;2024-02-21T03:17:42;24.23;;;7.13;;
11473;SDS011;5793;52.238;13.438;2024-02-21T03:20:11;17.03;;;6.30;;
11473;SDS011;5793;52.238;13.438;2024-02-21T03:22:39;20.43;;;7.37;;
11473;SDS011;5793;52.238;13.438;2024-02-21T03:25:08;20.83;;;6.90;;
11473;SDS011;5793;52.238;13.438;2024-02-21T03:27:36;19.80;;;6.80;;
11473;SDS011;5793;52.238;13.438;2024-02-21T03:30:05;20.37;;;6.33;;
11473;SDS011;5793;52.238;13.438;2024-02-21T03:32:33;18.10;;;7.07;;
11473;SDS011;5793;52.238;13.438;2024-02-21T03:35:02;22.97;;;6.53;;
11473;SDS011;5793;52.238;13.438;2024-02-21T03:37:31;23.63;;;7.40;;
11473;SDS011;5793;52.238;13.438;2024-02-21T03:39:59;18.60;;;6.43;;
11473;SDS011;5793;52.238;13.438;2024-02-21T03:42:28;19.63;;;7.20;;
11473;SDS011;5793;52.238;13.438;2024-02-21T03:44:57;23.10;;;7.20;;
11473;SDS011;5793;52.238;13.438;2024-02-21T03:47:25;23.80;;;8.30;;
11473;SDS011;5793;52.238;13.438;2024-02-21T03:49:53;21.77;;;7.20;;
11473;SDS011;5793;52.238;13.438;2024-02-21T03:52:22;21.50;;;7.47;;
11473;SDS011;5793;52.238;13.438;2024-02-21T03:54:50;17.63;;;7.37;;
11473;SDS011;5793;52.238;13.438;2024-02-21T03:57:18;21.63;;;7.10;;
11473;SDS011;5793;52.238;13.438;2024-02-21T03:59:46;23.00;;;7.63;;
11473;SDS011;5793;52.238;13.438;2024-02-21T04:02:13;18.20;;;7.53;;
11473;SDS011;5793;52.238;13.438;2024-02-21T04:04:42;25.97;;;7.53;;
11473;SDS011;5793;52.238;13.438;2024-02-21T04:07:12;20.10;;;7.97;;
11473;SDS011;5793;52.238;13.438;2024-02-21T04:09:42;20.63;;;7.67;;
11473;SDS011;5793;52.238;13.438;2024-02-21T04:12:09;22.33;;;8.33;;
11473;SDS011;5793;52.238;13.438;2024-02-21T04:14:37;21.07;;;8.43;;
11473;SDS011;5793;52.238;13.438;2024-02-21T04:17:08;20.97;;;7.53;;
11473;SDS011;5793;52.238;13.438;2024-02-21T04:19:36;19.50;;;7.00;;
11473;SDS011;5793;52.238;13.438;2024-02-21T04:22:05;21.93;;;7.83;;
11473;SDS011;5793;52.238;13.438;2024-02-21T04:24:32;24.80;;;7.37;;
11473;SDS011;5793;52.238;13.438;2024-02-21T04:27:01;21.27;;;7.50;;
11473;SDS011;5793;52.238;13.438;2024-02-21T04:29:29;19.73;;;7.70;;
11473;SDS011;5793;52.238;13.438;2024-02-21T04:31:57;17.43;;;7.43;;
11473;SDS011;5793;52.238;13.438;2024-02-21T04:34:25;18.03;;;8.13;;
11473;SDS011;5793;52.238;13.438;2024-02-21T04:36:53;18.07;;;8.10;;
11473;SDS011;5793;52.238;13.438;2024-02-21T04:39:21;22.27;;;7.57;;
11473;SDS011;5793;52.238;13.438;2024-02-21T04:41:48;22.70;;;7.07;;
11473;SDS011;5793;52.238;13.438;2024-02-21T04:44:17;18.63;;;7.33;;
11473;SDS011;5793;52.238;13.438;2024-02-21T04:46:48;19.90;;;7.93;;
11473;SDS011;5793;52.238;13.438;2024-02-21T04:49:16;18.60;;;7.87;;
11473;SDS011;5793;52.238;13.438;2024-02-21T04:51:43;17.40;;;7.60;;
11473;SDS011;5793;52.238;13.438;2024-02-21T04:54:12;19.67;;;7.53;;
11473;SDS011;5793;52.238;13.438;2024-02-21T04:56:40;22.13;;;8.07;;
11473;SDS011;5793;52.238;13.438;2024-02-21T04:59:08;21.60;;;7.37;;
11473;SDS011;5793;52.238;13.438;2024-02-21T05:01:37;17.37;;;7.37;;
11473;SDS011;5793;52.238;13.438;2024-02-21T05:04:04;17.90;;;6.97;;
11473;SDS011;5793;52.238;13.438;2024-02-21T05:06:36;20.65;;;8.00;;
11473;SDS011;5793;52.238;13.438;2024-02-21T05:09:05;18.43;;;7.73;;
11473;SDS011;5793;52.238;13.438;2024-02-21T05:11:32;19.37;;;7.33;;
11473;SDS011;5793;52.238;13.438;2024-02-21T05:14:01;25.60;;;8.40;;
11473;SDS011;5793;52.238;13.438;2024-02-21T05:16:29;18.93;;;7.50;;
11473;SDS011;5793;52.238;13.438;2024-02-21T05:18:58;14.03;;;7.17;;
11473;SDS011;5793;52.238;13.438;2024-02-21T05:21:26;24.27;;;8.30;;
11473;SDS011;5793;52.238;13.438;2024-02-21T05:23:54;21.33;;;8.33;;
11473;SDS011;5793;52.238;13.438;2024-02-21T05:26:22;18.40;;;7.63;;
11473;SDS011;5793;52.238;13.438;2024-02-21T05:28:50;20.70;;;7.27;;
11473;SDS011;5793;52.238;13.438;2024-02-21T05:31:18;20.43;;;8.10;;
11473;SDS011;5793;52.238;13.438;2024-02-21T05:33:47;31.07;;;8.83;;
11473;SDS011;5793;52.238;13.438;2024-02-21T05:36:16;23.37;;;8.77;;
11473;SDS011;5793;52.238;13.438;2024-02-21T05:38:44;22.17;;;8.83;;
11473;SDS011;5793;52.238;13.438;2024-02-21T05:41:12;24.53;;;8.70;;
11473;SDS011;5793;52.238;13.438;2024-02-21T05:43:40;20.17;;;8.07;;
11473;SDS011;5793;52.238;13.438;2024-02-21T05:46:08;21.70;;;7.93;;
11473;SDS011;5793;52.238;13.438;2024-02-21T05:48:35;23.60;;;8.23;;
11473;SDS011;5793;52.238;13.438;2024-02-21T05:51:05;17.90;;;7.93;;
11473;SDS011;5793;52.238;13.438;2024-02-21T05:53:34;20.30;;;7.57;;
11473;SDS011;5793;52.238;13.438;2024-02-21T05:56:03;20.83;;;7.73;;
11473;SDS011;5793;52.238;13.438;2024-02-21T05:58:31;26.93;;;8.00;;
11473;SDS011;5793;52.238;13.438;2024-02-21T06:00:59;20.27;;;7.60;;
11473;SDS011;5793;52.238;13.438;2024-02-21T06:03:28;19.23;;;7.83;;
11473;SDS011;5793;52.238;13.438;2024-02-21T06:05:56;17.93;;;7.90;;
11473;SDS011;5793;52.238;13.438;2024-02-21T06:08:23;22.20;;;10.00;;
11473;SDS011;5793;52.238;13.438;2024-02-21T06:10:53;19.07;;;8.17;;
11473;SDS011;5793;52.238;13.438;2024-02-21T06:13:21;18.03;;;7.40;;
11473;SDS011;5793;52.238;13.438;2024-02-21T06:15:49;20.63;;;7.57;;
11473;SDS011;5793;52.238;13.438;2024-02-21T06:18:17;20.87;;;7.30;;
11473;SDS011;5793;52.238;13.438;2024-02-21T06:20:45;22.47;;;7.73;;
11473;SDS011;5793;52.238;13.438;2024-02-21T06:23:15;19.37;;;7.70;;
11473;SDS011;5793;52.238;13.438;2024-02-21T06:25:44;25.50;;;7.93;;
11473;SDS011;5793;52.238;13.438;2024-02-21T06:28:13;18.27;;;7.13;;
11473;SDS011;5793;52.238;13.438;2024-02-21T06:30:41;17.10;;;7.47;;
11473;SDS011;5793;52.238;13.438;2024-02-21T06:33:09;16.90;;;7.00;;
11473;SDS011;5793;52.238;13.438;2024-02-21T06:35:37;16.67;;;7.40;;
11473;SDS011;5793;52.238;13.438;2024-02-21T06:38:07;17.77;;;7.13;;
11473;SDS011;5793;52.238;13.438;2024-02-21T06:40:35;19.70;;;8.20;;
11473;SDS011;5793;52.238;13.438;2024-02-21T06:43:06;16.57;;;6.80;;
11473;SDS011;5793;52.238;13.438;2024-02-21T06:45:35;18.07;;;7.33;;
11473;SDS011;5793;52.238;13.438;2024-02-21T06:48:03;23.03;;;7.73;;
11473;SDS011;5793;52.238;13.438;2024-02-21T06:50:31;15.90;;;7.43;;
11473;SDS011;5793;52.238;13.438;2024-02-21T06:52:59;17.43;;;7.30;;
11473;SDS011;5793;52.238;13.438;2024-02-21T06:55:27;24.47;;;7.50;;
11473;SDS011;5793;52.238;13.438;2024-02-21T06:57:55;19.60;;;7.23;;
11473;SDS011;5793;52.238;13.438;2024-02-21T07:00:22;19.57;;;7.50;;
11473;SDS011;5793;52.238;13.438;2024-02-21T07:02:54;21.03;;;7.87;;
11473;SDS011;5793;52.238;13.438;2024-02-21T07:05:21;15.30;;;7.07;;
11473;SDS011;5793;52.238;13.438;2024-02-21T07:07:49;19.10;;;7.47;;
11473;SDS011;5793;52.238;13.438;2024-02-21T07:10:17;20.13;;;7.17;;
11473;SDS011;5793;52.238;13.438;2024-02-21T07:12:45;22.20;;;7.93;;
11473;SDS011;5793;52.238;13.438;2024-02-21T07:15:13;19.13;;;7.60;;
11473;SDS011;5793;52.238;13.438;2024-02-21T07:17:41;23.63;;;8.33;;
11473;SDS011;5793;52.238;13.438;2024-02-21T07:20:10;25.50;;;8.17;;
11473;SDS011;5793;52.238;13.438;2024-02-21T07:22:38;19.17;;;8.27;;
11473;SDS011;5793;52.238;13.438;2024-02-21T07:25:07;23.43;;;8.50;;
11473;SDS011;5793;52.238;13.438;2024-02-21T07:27:35;18.07;;;7.67;;
11473;SDS011;5793;52.238;13.438;2024-02-21T07:30:04;20.83;;;7.90;;
11473;SDS011;5793;52.238;13.438;2024-02-21T07:32:32;22.53;;;8.27;;
11473;SDS011;5793;52.238;13.438;2024-02-21T07:35:00;17.27;;;8.10;;
11473;SDS011;5793;52.238;13.438;2024-02-21T07:37:30;17.30;;;8.00;;
11473;SDS011;5793;52.238;13.438;2024-02-21T07:39:58;17.43;;;7.97;;
11473;SDS011;5793;52.238;13.438;2024-02-21T07:42:26;21.10;;;7.97;;
11473;SDS011;5793;52.238;13.438;2024-02-21T07:44:54;20.80;;;8.47;;
11473;SDS011;5793;52.238;13.438;2024-02-21T07:47:23;18.03;;;8.67;;
11473;SDS011;5793;52.238;13.438;2024-02-21T07:49:50;23.00;;;9.07;;
11473;SDS011;5793;52.238;13.438;2024-02-21T07:52:18;20.90;;;8.93;;
11473;SDS011;5793;52.238;13.438;2024-02-21T07:54:47;18.10;;;8.20;;
11473;SDS011;5793;52.238;13.438;2024-02-21T07:57:15;17.30;;;8.57;;
11473;SDS011;5793;52.238;13.438;2024-02-21T07:59:43;18.00;;;7.37;;
11473;SDS011;5793;52.238;13.438;2024-02-21T08:02:13;19.73;;;7.87;;
11473;SDS011;5793;52.238;13.438;2024-02-21T08:04:41;21.03;;;8.37;;
11473;SDS011;5793;52.238;13.438;2024-02-21T08:07:09;17.30;;;7.30;;
11473;SDS011;5793;52.238;13.438;2024-02-21T08:09:39;23.27;;;8.60;;
11473;SDS011;5793;52.238;13.438;2024-02-21T08:12:08;17.10;;;7.57;;
11473;SDS011;5793;52.238;13.438;2024-02-21T08:14:36;17.93;;;7.40;;
11473;SDS011;5793;52.238;13.438;2024-02-21T08:17:03;21.23;;;8.17;;
11473;SDS011;5793;52.238;13.438;2024-02-21T08:19:31;18.07;;;8.30;;
11473;SDS011;5793;52.238;13.438;2024-02-21T08:21:59;23.47;;;7.93;;
11473;SDS011;5793;52.238;13.438;2024-02-21T08:24:27;21.57;;;9.13;;
11473;SDS011;5793;52.238;13.438;2024-02-21T08:26:55;19.27;;;8.40;;
11473;SDS011;5793;52.238;13.438;2024-02-21T08:29:24;21.80;;;8.63;;
11473;SDS011;5793;52.238;13.438;2024-02-21T08:31:52;20.33;;;8.60;;
11473;SDS011;5793;52.238;13.438;2024-02-21T08:34:20;26.57;;;8.87;;
11473;SDS011;5793;52.238;13.438;2024-02-21T08:36:48;17.80;;;8.30;;
11473;SDS011;5793;52.238;13.438;2024-02-21T08:39:16;21.57;;;8.63;;
11473;SDS011;5793;52.238;13.438;2024-02-21T08:41:44;15.03;;;8.03;;
11473;SDS011;5793;52.238;13.438;2024-02-21T08:44:22;17.27;;;8.60;;
11473;SDS011;5793;52.238;13.438;2024-02-21T08:46:53;19.87;;;8.23;;
11473;SDS011;5793;52.238;13.438;2024-02-21T08:49:21;18.00;;;8.57;;
11473;SDS011;5793;52.238;13.438;2024-02-21T08:51:50;22.23;;;8.70;;
11473;SDS011;5793;52.238;13.438;2024-02-21T08:54:18;15.13;;;8.00;;
11473;SDS011;5793;52.238;13.438;2024-02-21T08:56:45;19.70;;;8.37;;
11473;SDS011;5793;52.238;13.438;2024-02-21T08:59:13;20.20;;;8.13;;
11473;SDS011;5793;52.238;13.438;2024-02-21T09:01:43;19.17;;;8.03;;
11473;SDS011;5793;52.238;13.438;2024-02-21T09:04:11;18.83;;;7.97;;
11473;SDS011;5793;52.238;13.438;2024-02-21T09:06:39;17.07;;;7.57;;
11473;SDS011;5793;52.238;13.438;2024-02-21T09:09:09;15.73;;;7.37;;
11473;SDS011;5793;52.238;13.438;2024-02-21T09:11:36;11.60;;;6.60;;
11473;SDS011;5793;52.238;13.438;2024-02-21T09:14:05;14.83;;;6.93;;
11473;SDS011;5793;52.238;13.438;2024-02-21T09:16:33;16.30;;;6.97;;
11473;SDS011;5793;52.238;13.438;2024-02-21T09:19:02;19.63;;;8.53;;
11473;SDS011;5793;52.238;13.438;2024-02-21T09:21:30;13.77;;;7.07;;
11473;SDS011;5793;52.238;13.438;2024-02-21T09:23:58;15.53;;;7.70;;
11473;SDS011;5793;52.238;13.438;2024-02-21T09:26:26;19.17;;;8.83;;
11473;SDS011;5793;52.238;13.438;2024-02-21T09:28:54;21.53;;;8.83;;
11473;SDS011;5793;52.238;13.438;2024-02-21T09:31:22;15.80;;;7.50;;
11473;SDS011;5793;52.238;13.438;2024-02-21T09:33:49;15.77;;;8.13;;
11473;SDS011;5793;52.238;13.438;2024-02-21T09:36:19;20.17;;;8.10;;
11473;SDS011;5793;52.238;13.438;2024-02-21T09:38:47;18.13;;;6.90;;
11473;SDS011;5793;52.238;13.438;2024-02-21T09:41:16;19.87;;;7.80;;
11473;SDS011;5793;52.238;13.438;2024-02-21T09:43:50;17.10;;;7.27;;
11473;SDS011;5793;52.238;13.438;2024-02-21T09:46:21;18.80;;;7.97;;
11473;SDS011;5793;52.238;13.438;2024-02-21T09:48:56;19.10;;;7.10;;
11473;SDS011;5793;52.238;13.438;2024-02-21T09:51:34;16.27;;;7.63;;
11473;SDS011;5793;52.238;13.438;2024-02-21T09:54:03;15.43;;;7.87;;
11473;SDS011;5793;52.238;13.438;2024-02-21T09:56:41;14.97;;;7.20;;
11473;SDS011;5793;52.238;13.438;2024-02-21T09:59:12;14.07;;;7.17;;
11473;SDS011;5793;52.238;13.438;2024-02-21T10:01:40;16.57;;;7.33;;
11473;SDS011;5793;52.238;13.438;2024-02-21T10:04:09;15.13;;;7.37;;
11473;SDS011;5793;52.238;13.438;2024-02-21T10:06:38;16.90;;;7.37;;
11473;SDS011;5793;52.238;13.438;2024-02-21T10:09:06;17.73;;;7.57;;
11473;SDS011;5793;52.238;13.438;2024-02-21T10:11:34;12.60;;;6.47;;
11473;SDS011;5793;52.238;13.438;2024-02-21T10:14:03;15.47;;;7.00;;
11473;SDS011;5793;52.238;13.438;2024-02-21T10:16:32;14.63;;;7.27;;
11473;SDS011;5793;52.238;13.438;2024-02-21T10:19:00;15.00;;;7.07;;
11473;SDS011;5793;52.238;13.438;2024-02-21T10:21:30;15.10;;;7.37;;
11473;SDS011;5793;52.238;13.438;2024-02-21T10:23:59;18.30;;;7.97;;
11473;SDS011;5793;52.238;13.438;2024-02-21T10:26:28;11.80;;;6.60;;
11473;SDS011;5793;52.238;13.438;2024-02-21T10:28:56;14.47;;;6.80;;
11473;SDS011;5793;52.238;13.438;2024-02-21T10:31:24;17.33;;;7.27;;
11473;SDS011;5793;52.238;13.438;2024-02-21T10:33:53;15.30;;;7.30;;
11473;SDS011;5793;52.238;13.438;2024-02-21T10:36:22;24.40;;;8.50;;
11473;SDS011;5793;52.238;13.438;2024-02-21T10:38:51;16.90;;;6.60;;
11473;SDS011;5793;52.238;13.438;2024-02-21T10:41:21;15.53;;;7.27;;
11473;SDS011;5793;52.238;13.438;2024-02-21T10:43:50;14.43;;;7.17;;
11473;SDS011;5793;52.238;13.438;2024-02-21T10:46:20;18.53;;;7.17;;
11473;SDS011;5793;52.238;13.438;2024-02-21T10:48:52;19.23;;;7.43;;
11473;SDS011;5793;52.238;13.438;2024-02-21T10:51:29;17.27;;;6.63;;
11473;SDS011;5793;52.238;13.438;2024-02-21T10:54:04;15.33;;;6.80;;
11473;SDS011;5793;52.238;13.438;2024-02-21T10:56:42;9.13;;;6.47;;
11473;SDS011;5793;52.238;13.438;2024-02-21T10:59:11;12.60;;;6.30;;
11473;SDS011;5793;52.238;13.438;2024-02-21T11:01:40;14.33;;;6.10;;
11473;SDS011;5793;52.238;13.438;2024-02-21T11:04:09;10.60;;;5.90;;
11473;SDS011;5793;52.238;13.438;2024-02-21T11:06:38;8.83;;;5.87;;
11473;SDS011;5793;52.238;13.438;2024-02-21T11:09:09;15.97;;;6.20;;
11473;SDS011;5793;52.238;13.438;2024-02-21T11:11:38;12.30;;;6.50;;
11473;SDS011;5793;52.238;13.438;2024-02-21T11:14:09;10.93;;;5.87;;
11473;SDS011;5793;52.238;13.438;2024-02-21T11:16:41;9.23;;;5.50;;
11473;SDS011;5793;52.238;13.438;2024-02-21T11:19:09;15.43;;;6.20;;
11473;SDS011;5793;52.238;13.438;2024-02-21T11:21:49;11.00;;;6.20;;
11473;SDS011;5793;52.238;13.438;2024-02-21T11:24:25;8.07;;;5.67;;
11473;SDS011;5793;52.238;13.438;2024-02-21T11:26:53;13.67;;;6.07;;
11473;SDS011;5793;52.238;13.438;2024-02-21T11:29:25;13.70;;;5.97;;
11473;SDS011;5793;52.238;13.438;2024-02-21T11:31:55;11.50;;;5.60;;
11473;SDS011;5793;52.238;13.438;2024-02-21T11:34:22;11.93;;;5.73;;
11473;SDS011;5793;52.238;13.438;2024-02-21T11:36:51;12.87;;;6.00;;
11473;SDS011;5793;52.238;13.438;2024-02-21T11:39:19;13.47;;;5.97;;
11473;SDS011;5793;52.238;13.438;2024-02-21T11:41:59;12.53;;;5.63;;
11473;SDS011;5793;52.238;13.438;2024-02-21T11:44:29;9.10;;;5.37;;
11473;SDS011;5793;52.238;13.438;2024-02-21T11:46:57;12.53;;;6.20;;
11473;SDS011;5793;52.238;13.438;2024-02-21T11:49:25;10.13;;;5.23;;
11473;SDS011;5793;52.238;13.438;2024-02-21T11:51:59;18.13;;;6.30;;
11473;SDS011;5793;52.238;13.438;2024-02-21T11:54:30;15.53;;;5.83;;
11473;SDS011;5793;52.238;13.438;2024-02-21T11:56:58;11.93;;;5.90;;
11473;SDS011;5793;52.238;13.438;2024-02-21T12:01:55;11.33;;;5.90;;
11473;SDS011;5793;52.238;13.438;2024-02-21T12:04:25;11.70;;;5.43;;
11473;SDS011;5793;52.238;13.438;2024-02-21T12:06:53;9.13;;;5.47;;
11473;SDS011;5793;52.238;13.438;2024-02-21T12:09:22;10.17;;;5.27;;
11473;SDS011;5793;52.238;13.438;2024-02-21T12:11:56;10.80;;;5.17;;
11473;SDS011;5793;52.238;13.438;2024-02-21T12:14:25;12.73;;;5.13;;
11473;SDS011;5793;52.238;13.438;2024-02-21T12:16:55;13.63;;;5.30;;
11473;SDS011;5793;52.238;13.438;2024-02-21T12:19:23;11.37;;;4.70;;
11473;SDS011;5793;52.238;13.438;2024-02-21T12:21:51;12.47;;;5.57;;
11473;SDS011;5793;52.238;13.438;2024-02-21T12:24:21;17.17;;;7.00;;
11473;SDS011;5793;52.238;13.438;2024-02-21T12:26:50;17.27;;;7.90;;
11473;SDS011;5793;52.238;13.438;2024-02-21T12:29:19;12.00;;;5.20;;
11473;SDS011;5793;52.238;13.438;2024-02-21T12:31:47;12.27;;;6.23;;
11473;SDS011;5793;52.238;13.438;2024-02-21T12:34:16;9.23;;;5.40;;
11473;SDS011;5793;52.238;13.438;2024-02-21T12:36:59;11.23;;;4.53;;
11473;SDS011;5793;52.238;13.438;2024-02-21T12:39:29;8.67;;;5.00;;
11473;SDS011;5793;52.238;13.438;2024-02-21T12:41:58;15.30;;;5.30;;
11473;SDS011;5793;52.238;13.438;2024-02-21T12:44:27;11.23;;;4.63;;
11473;SDS011;5793;52.238;13.438;2024-02-21T12:46:54;12.20;;;5.43;;
11473;SDS011;5793;52.238;13.438;2024-02-21T12:49:24;10.00;;;4.80;;
11473;SDS011;5793;52.238;13.438;2024-02-21T12:51:53;12.83;;;6.93;;
11473;SDS011;5793;52.238;13.438;2024-02-21T12:54:22;11.57;;;5.10;;
11473;SDS011;5793;52.238;13.438;2024-02-21T12:56:50;17.43;;;5.43;;
11473;SDS011;5793;52.238;13.438;2024-02-21T12:59:17;7.77;;;5.37;;
11473;SDS011;5793;52.238;13.438;2024-02-21T13:01:45;11.47;;;5.07;;
11473;SDS011;5793;52.238;13.438;2024-02-21T13:04:13;9.43;;;4.90;;
11473;SDS011;5793;52.238;13.438;2024-02-21T13:06:42;8.80;;;4.70;;
11473;SDS011;5793;52.238;13.438;2024-02-21T13:09:11;9.90;;;5.23;;
11473;SDS011;5793;52.238;13.438;2024-02-21T13:11:40;8.60;;;5.07;;
11473;SDS011;5793;52.238;13.438;2024-02-21T13:14:10;9.93;;;4.93;;
11473;SDS011;5793;52.238;13.438;2024-02-21T13:16:38;11.87;;;4.97;;
11473;SDS011;5793;52.238;13.438;2024-02-21T13:19:07;12.23;;;5.37;;
11473;SDS011;5793;52.238;13.438;2024-02-21T13:21:35;11.30;;;5.07;;
11473;SDS011;5793;52.238;13.438;2024-02-21T13:24:05;12.43;;;4.87;;
11473;SDS011;5793;52.238;13.438;2024-02-21T13:26:33;8.77;;;4.60;;
11473;SDS011;5793;52.238;13.438;2024-02-21T13:29:01;10.33;;;4.93;;
11473;SDS011;5793;52.238;13.438;2024-02-21T13:31:29;5.70;;;4.40;;
11473;SDS011;5793;52.238;13.438;2024-02-21T13:33:56;12.70;;;4.67;;
11473;SDS011;5793;52.238;13.438;2024-02-21T13:36:24;8.50;;;4.43;;
11473;SDS011;5793;52.238;13.438;2024-02-21T13:38:52;11.93;;;4.50;;
11473;SDS011;5793;52.238;13.438;2024-02-21T13:41:21;11.67;;;3.90;;
11473;SDS011;5793;52.238;13.438;2024-02-21T13:43:49;8.17;;;4.10;;
11473;SDS011;5793;52.238;13.438;2024-02-21T13:46:17;9.03;;;4.10;;
11473;SDS011;5793;52.238;13.438;2024-02-21T13:48:46;7.50;;;3.60;;
11473;SDS011;5793;52.238;13.438;2024-02-21T13:51:14;7.97;;;3.80;;
11473;SDS011;5793;52.238;13.438;2024-02-21T13:53:43;6.27;;;3.53;;
11473;SDS011;5793;52.238;13.438;2024-02-21T13:56:10;7.80;;;4.30;;
11473;SDS011;5793;52.238;13.438;2024-02-21T13:58:40;10.37;;;3.73;;
11473;SDS011;5793;52.238;13.438;2024-02-21T14:01:08;6.17;;;3.80;;
11473;SDS011;5793;52.238;13.438;2024-02-21T14:03:36;7.13;;;3.73;;
11473;SDS011;5793;52.238;13.438;2024-02-21T14:06:04;12.90;;;4.10;;
11473;SDS011;5793;52.238;13.438;2024-02-21T14:08:32;7.60;;;4.43;;
11473;SDS011;5793;52.238;13.438;2024-02-21T14:11:00;8.27;;;4.73;;
11473;SDS011;5793;52.238;13.438;2024-02-21T14:13:28;14.50;;;5.10;;
11473;SDS011;5793;52.238;13.438;2024-02-21T14:15:57;9.23;;;4.80;;
11473;SDS011;5793;52.238;13.438;2024-02-21T14:18:25;8.97;;;4.70;;
11473;SDS011;5793;52.238;13.438;2024-02-21T14:20:53;10.80;;;4.50;;
11473;SDS011;5793;52.238;13.438;2024-02-21T14:23:21;8.83;;;4.60;;
11473;SDS011;5793;52.238;13.438;2024-02-21T14:25:49;11.33;;;4.83;;
11473;SDS011;5793;52.238;13.438;2024-02-21T14:28:17;10.07;;;5.20;;
11473;SDS011;5793;52.238;13.438;2024-02-21T14:30:47;11.03;;;4.90;;
11473;SDS011;5793;52.238;13.438;2024-02-21T14:33:21;9.03;;;4.43;;
11473;SDS011;5793;52.238;13.438;2024-02-21T14:35:49;7.83;;;4.13;;
11473;SDS011;5793;52.238;13.438;2024-02-21T14:38:17;11.23;;;4.20;;
11473;SDS011;5793;52.238;13.438;2024-02-21T14:40:46;9.93;;;4.63;;
11473;SDS011;5793;52.238;13.438;2024-02-21T14:43:14;9.73;;;4.50;;
11473;SDS011;5793;52.238;13.438;2024-02-21T14:45:41;14.90;;;5.13;;
11473;SDS011;5793;52.238;13.438;2024-02-21T14:48:09;11.50;;;4.53;;